createdAt,value
2019-04-01T00:00:47.328Z,8.59
2019-04-01T00:03:18.614Z,8.59
2019-04-01T00:05:50.335Z,8.60
2019-04-01T00:08:21.451Z,8.50
2019-04-01T00:10:52.852Z,8.47
2019-04-01T00:13:24.213Z,8.34
2019-04-01T00:15:55.532Z,8.28
2019-04-01T00:18:26.881Z,8.25
2019-04-01T00:20:58.606Z,8.16
2019-04-01T00:23:31.047Z,8.11
2019-04-01T00:26:02.109Z,8.09
2019-04-01T00:28:34.195Z,8.09
2019-04-01T00:31:05.466Z,8.11
2019-04-01T00:33:36.820Z,8.11
2019-04-01T00:36:08.060Z,8.15
2019-04-01T00:38:39.494Z,8.13
2019-04-01T00:41:10.735Z,8.19
2019-04-01T00:43:43.683Z,8.18
2019-04-01T00:46:16.607Z,8.10
2019-04-01T00:48:50.905Z,8.01
2019-04-01T00:51:23.280Z,8.09
2019-04-01T00:53:54.895Z,8.06
2019-04-01T00:56:26.340Z,8.08
2019-04-01T00:58:57.443Z,8.00
2019-04-01T01:01:28.691Z,7.99
2019-04-01T01:04:00.082Z,7.86
2019-04-01T01:06:31.497Z,7.79
2019-04-01T01:09:02.883Z,7.73
2019-04-01T01:11:35.407Z,7.64
2019-04-01T01:14:06.648Z,7.61
2019-04-01T01:16:38.010Z,7.71
2019-04-01T01:19:09.414Z,7.76
2019-04-01T01:21:40.784Z,7.82
2019-04-01T01:24:12.107Z,7.78
2019-04-01T01:26:43.263Z,7.86
2019-04-01T01:29:14.595Z,7.98
2019-04-01T01:31:46.015Z,8.01
2019-04-01T01:34:17.303Z,8.05
2019-04-01T01:36:48.564Z,7.98
2019-04-01T01:39:19.887Z,8.07
2019-04-01T01:41:51.430Z,8.09
2019-04-01T01:44:22.799Z,7.94
2019-04-01T01:46:55.084Z,7.95
2019-04-01T01:49:26.233Z,7.85
2019-04-01T01:52:04.352Z,7.99
2019-04-01T01:54:35.908Z,8.15
2019-04-01T01:57:07.235Z,8.30
2019-04-01T01:59:38.575Z,8.28
2019-04-01T02:02:09.837Z,8.15
2019-04-01T02:04:41.068Z,8.11
2019-04-01T02:07:12.376Z,8.18
2019-04-01T02:09:43.688Z,8.14
2019-04-01T02:12:15.123Z,8.08
2019-04-01T02:14:46.679Z,8.10
2019-04-01T02:17:18.110Z,8.18
2019-04-01T02:19:49.667Z,8.17
2019-04-01T02:22:21.347Z,8.05
2019-04-01T02:24:52.691Z,7.86
2019-04-01T02:27:23.997Z,7.84
2019-04-01T02:29:55.295Z,7.70
2019-04-01T02:32:26.535Z,7.60
2019-04-01T02:34:57.908Z,7.55
2019-04-01T02:37:29.333Z,7.54
2019-04-01T02:40:00.801Z,7.48
2019-04-01T02:42:35.848Z,7.38
2019-04-01T02:45:07.119Z,7.26
2019-04-01T02:47:38.287Z,7.27
2019-04-01T02:50:09.697Z,7.26
2019-04-01T02:52:41.801Z,7.21
2019-04-01T02:55:13.303Z,7.06
2019-04-01T02:57:44.637Z,7.00
2019-04-01T03:00:16.112Z,7.02
2019-04-01T03:02:47.241Z,6.93
2019-04-01T03:05:18.599Z,6.87
2019-04-01T03:07:49.976Z,6.81
2019-04-01T03:10:21.247Z,6.75
2019-04-01T03:12:53.666Z,6.77
2019-04-01T03:15:25.015Z,6.73
2019-04-01T03:17:56.133Z,6.68
2019-04-01T03:20:27.538Z,6.65
2019-04-01T03:22:59.056Z,6.64
2019-04-01T03:25:30.311Z,6.65
2019-04-01T03:28:01.658Z,6.66
2019-04-01T03:30:33.013Z,6.73
2019-04-01T03:33:04.217Z,6.67
2019-04-01T03:35:35.698Z,6.72
2019-04-01T03:38:06.944Z,6.79
2019-04-01T03:40:38.292Z,6.98
2019-04-01T03:43:09.655Z,7.04
2019-04-01T03:45:41.121Z,7.01
2019-04-01T03:48:12.476Z,7.22
2019-04-01T03:50:43.793Z,7.32
2019-04-01T03:53:15.813Z,7.33
2019-04-01T03:55:47.345Z,7.37
2019-04-01T03:58:18.784Z,7.49
2019-04-01T04:00:50.324Z,7.55
2019-04-01T04:03:21.635Z,7.55
2019-04-01T04:05:53.119Z,7.61
2019-04-01T04:08:24.681Z,7.62
2019-04-01T04:10:55.781Z,7.65
2019-04-01T04:13:26.983Z,7.74
2019-04-01T04:15:58.606Z,7.82
2019-04-01T04:18:29.959Z,7.88
2019-04-01T04:21:01.308Z,7.93
2019-04-01T04:23:32.636Z,7.97
2019-04-01T04:26:04.021Z,8.01
2019-04-01T04:28:35.377Z,8.03
2019-04-01T04:31:06.516Z,8.09
2019-04-01T04:33:37.758Z,8.22
2019-04-01T04:36:09.114Z,8.34
2019-04-01T04:38:40.411Z,8.44
2019-04-01T04:41:11.804Z,8.62
2019-04-01T04:43:42.928Z,8.73
2019-04-01T04:46:14.229Z,8.90
2019-04-01T04:48:45.937Z,8.97
2019-04-01T04:51:18.494Z,9.05
2019-04-01T04:53:50.748Z,9.20
2019-04-01T04:56:22.064Z,9.27
2019-04-01T04:58:53.315Z,9.45
2019-04-01T05:01:24.653Z,9.57
2019-04-01T05:03:56.207Z,9.68
2019-04-01T05:06:29.199Z,9.85
2019-04-01T05:09:02.065Z,9.99
2019-04-01T05:11:34.252Z,10.15
2019-04-01T05:14:05.382Z,10.29
2019-04-01T05:16:37.919Z,10.50
2019-04-01T05:19:09.215Z,10.62
2019-04-01T05:21:41.808Z,10.63
2019-04-01T05:24:13.248Z,10.72
2019-04-01T05:26:45.340Z,10.55
2019-04-01T05:29:16.807Z,10.35
2019-04-01T05:31:48.530Z,10.50
2019-04-01T05:34:20.101Z,10.76
2019-04-01T05:36:51.538Z,10.87
2019-04-01T05:39:22.980Z,11.09
2019-04-01T05:41:55.878Z,11.44
2019-04-01T05:44:27.222Z,11.59
2019-04-01T05:46:58.673Z,11.71
2019-04-01T05:49:29.942Z,11.65
2019-04-01T05:52:03.155Z,11.78
2019-04-01T05:54:35.837Z,11.90
2019-04-01T05:57:07.256Z,12.12
2019-04-01T05:59:38.705Z,12.32
2019-04-01T06:02:11.248Z,12.44
2019-04-01T06:04:42.746Z,12.51
2019-04-01T06:07:14.576Z,12.70
2019-04-01T06:09:46.137Z,12.71
2019-04-01T06:12:17.392Z,12.88
2019-04-01T06:14:49.761Z,12.84
2019-04-01T06:17:21.251Z,12.92
2019-04-01T06:19:52.772Z,12.62
2019-04-01T06:22:24.121Z,12.52
2019-04-01T06:24:55.160Z,12.20
2019-04-01T06:27:27.795Z,12.39
2019-04-01T06:29:59.534Z,12.57
2019-04-01T06:32:31.971Z,12.78
2019-04-01T06:35:05.115Z,12.93
2019-04-01T06:37:37.337Z,13.12
2019-04-01T06:40:08.799Z,13.23
2019-04-01T06:42:42.489Z,13.48
2019-04-01T06:45:13.953Z,13.55
2019-04-01T06:47:46.952Z,13.65
2019-04-01T06:50:18.506Z,13.70
2019-04-01T06:52:50.764Z,13.78
2019-04-01T06:55:33.592Z,13.65
2019-04-01T06:58:05.324Z,13.95
2019-04-01T07:00:36.758Z,14.03
2019-04-01T07:03:09.845Z,14.07
2019-04-01T07:05:41.434Z,14.19
2019-04-01T07:08:12.892Z,14.26
2019-04-01T07:10:44.140Z,14.44
2019-04-01T07:13:15.596Z,14.49
2019-04-01T07:15:46.874Z,14.54
2019-04-01T07:18:18.126Z,14.43
2019-04-01T07:20:49.537Z,14.55
2019-04-01T07:23:22.832Z,14.78
2019-04-01T07:25:56.021Z,14.91
2019-04-01T07:28:27.505Z,14.89
2019-04-01T07:30:58.738Z,15.14
2019-04-01T07:33:30.143Z,15.16
2019-04-01T07:36:01.588Z,15.34
2019-04-01T07:38:33.320Z,15.40
2019-04-01T07:41:05.364Z,15.49
2019-04-01T07:43:36.746Z,15.76
2019-04-01T07:46:08.377Z,15.90
2019-04-01T07:48:41.651Z,16.17
2019-04-01T07:51:12.828Z,16.31
2019-04-01T07:53:51.378Z,16.41
2019-04-01T07:56:24.734Z,16.71
2019-04-01T07:58:56.526Z,16.95
2019-04-01T08:01:27.697Z,16.77
2019-04-01T08:03:58.969Z,16.84
2019-04-01T08:06:30.958Z,16.73
2019-04-01T08:09:02.226Z,17.07
2019-04-01T08:11:34.748Z,17.31
2019-04-01T08:14:06.282Z,17.21
2019-04-01T08:16:38.749Z,17.13
2019-04-01T08:19:10.354Z,17.26
2019-04-01T08:21:46.240Z,17.44
2019-04-01T08:24:19.018Z,17.72
2019-04-01T08:26:51.369Z,17.51
2019-04-01T08:29:29.970Z,17.63
2019-04-01T08:31:57.236Z,17.79
2019-04-01T08:34:29.781Z,17.92
2019-04-01T08:37:01.426Z,17.97
2019-04-01T08:39:32.664Z,18.08
2019-04-01T08:42:04.062Z,18.23
2019-04-01T08:44:35.519Z,18.33
2019-04-01T08:47:10.143Z,18.31
2019-04-01T08:49:42.654Z,18.57
2019-04-01T08:52:14.281Z,18.71
2019-04-01T08:54:45.615Z,18.70
2019-04-01T08:57:17.973Z,18.76
2019-04-01T08:59:50.395Z,18.71
2019-04-01T09:02:23.089Z,18.85
2019-04-01T09:04:55.385Z,19.07
2019-04-01T09:07:27.913Z,19.26
2019-04-01T09:09:59.345Z,19.41
2019-04-01T09:12:30.600Z,19.10
2019-04-01T09:15:02.315Z,19.19
2019-04-01T09:17:34.578Z,19.31
2019-04-01T09:20:07.315Z,18.86
2019-04-01T09:22:38.530Z,19.28
2019-04-01T09:25:10.352Z,19.42
2019-04-01T09:27:42.658Z,19.02
2019-04-01T09:30:14.115Z,19.04
2019-04-01T09:32:45.789Z,19.12
2019-04-01T09:35:17.202Z,19.36
2019-04-01T09:37:49.468Z,19.31
2019-04-01T09:40:20.764Z,19.78
2019-04-01T09:42:52.131Z,19.88
2019-04-01T09:45:25.142Z,20.40
2019-04-01T09:47:56.447Z,20.22
2019-04-01T09:50:27.665Z,20.00
2019-04-01T09:52:58.850Z,20.13
2019-04-01T09:55:31.133Z,20.30
2019-04-01T09:58:05.681Z,20.64
2019-04-01T10:00:37.723Z,20.77
2019-04-01T10:03:09.021Z,20.69
2019-04-01T10:05:41.222Z,20.92
2019-04-01T10:08:17.913Z,20.96
2019-04-01T10:10:49.378Z,21.05
2019-04-01T10:13:20.851Z,20.99
2019-04-01T10:15:52.365Z,21.33
2019-04-01T10:18:25.894Z,21.09
2019-04-01T10:20:57.309Z,21.41
2019-04-01T10:23:28.469Z,22.16
2019-04-01T10:25:59.868Z,22.13
2019-04-01T10:28:32.376Z,22.05
2019-04-01T10:31:03.944Z,22.30
2019-04-01T10:33:36.885Z,22.88
2019-04-01T10:36:09.284Z,23.53
2019-04-01T10:38:40.658Z,24.63
2019-04-01T10:41:11.878Z,25.19
2019-04-01T10:43:44.279Z,25.75
2019-04-01T10:46:18.508Z,26.33
2019-04-01T10:48:51.822Z,26.08
2019-04-01T10:51:23.296Z,26.45
2019-04-01T10:53:54.928Z,26.99
2019-04-01T10:56:28.434Z,26.90
2019-04-01T10:59:00.666Z,27.62
2019-04-01T11:01:33.286Z,27.52
2019-04-01T11:04:10.729Z,28.12
2019-04-01T11:06:43.162Z,26.78
2019-04-01T11:09:15.730Z,26.54
2019-04-01T11:11:47.293Z,27.28
2019-04-01T11:14:20.721Z,28.70
2019-04-01T11:16:55.490Z,28.35
2019-04-01T11:19:26.745Z,28.82
2019-04-01T11:21:58.160Z,29.28
2019-04-01T11:24:29.527Z,28.97
2019-04-01T11:27:02.751Z,28.65
2019-04-01T11:29:34.054Z,27.91
2019-04-01T11:32:05.314Z,28.20
2019-04-01T11:34:36.760Z,29.09
2019-04-01T11:37:08.499Z,28.65
2019-04-01T11:39:40.101Z,28.32
2019-04-01T11:42:12.204Z,28.19
2019-04-01T11:44:45.286Z,27.17
2019-04-01T11:47:20.379Z,27.11
2019-04-01T11:49:51.094Z,27.42
2019-04-01T11:52:25.403Z,28.11
2019-04-01T11:54:58.634Z,28.00
2019-04-01T11:57:31.509Z,27.68
2019-04-01T12:00:05.218Z,27.35
2019-04-01T12:02:36.447Z,25.62
2019-04-01T12:05:09.563Z,23.95
2019-04-01T12:07:40.793Z,23.74
2019-04-01T12:10:14.570Z,24.50
2019-04-01T12:12:47.219Z,26.87
2019-04-01T12:15:19.640Z,27.85
2019-04-01T12:17:50.982Z,28.79
2019-04-01T12:20:23.989Z,28.91
2019-04-01T12:22:56.785Z,28.92
2019-04-01T12:25:28.086Z,29.04
2019-04-01T12:27:59.722Z,29.62
2019-04-01T12:30:33.793Z,29.98
2019-04-01T12:33:06.456Z,29.97
2019-04-01T12:35:38.736Z,30.57
2019-04-01T12:38:11.372Z,29.33
2019-04-01T12:40:42.815Z,28.30
2019-04-01T12:43:15.367Z,26.70
2019-04-01T12:45:52.183Z,24.58
2019-04-01T12:48:26.969Z,23.65
2019-04-01T12:50:58.337Z,22.74
2019-04-01T12:53:30.067Z,22.62
2019-04-01T12:56:02.870Z,24.70
2019-04-01T12:58:35.011Z,26.46
2019-04-01T13:01:07.684Z,26.76
2019-04-01T13:03:40.786Z,26.94
2019-04-01T13:06:13.936Z,26.63
2019-04-01T13:08:46.694Z,26.61
2019-04-01T13:11:19.412Z,24.71
2019-04-01T13:13:56.423Z,24.41
2019-04-01T13:16:27.899Z,24.33
2019-04-01T13:19:00.683Z,23.41
2019-04-01T13:21:34.639Z,23.00
2019-04-01T13:24:07.606Z,22.48
2019-04-01T13:26:41.627Z,21.70
2019-04-01T13:29:13.317Z,20.89
2019-04-01T13:31:45.264Z,21.20
2019-04-01T13:34:22.840Z,21.50
2019-04-01T13:36:54.382Z,21.27
2019-04-01T13:39:26.039Z,21.22
2019-04-01T13:41:59.792Z,21.28
2019-04-01T13:44:37.218Z,21.83
2019-04-01T13:47:09.063Z,21.73
2019-04-01T13:49:40.152Z,21.38
2019-04-01T13:52:11.669Z,20.99
2019-04-01T13:54:44.637Z,20.84
2019-04-01T13:57:19.457Z,20.77
2019-04-01T13:59:51.790Z,20.49
2019-04-01T14:02:24.644Z,20.51
2019-04-01T14:05:01.407Z,20.24
2019-04-01T14:07:35.755Z,20.29
2019-04-01T14:10:08.207Z,20.14
2019-04-01T14:12:42.471Z,19.85
2019-04-01T14:15:16.736Z,19.55
2019-04-01T14:17:48.005Z,19.65
2019-04-01T14:20:20.583Z,19.89
2019-04-01T14:22:53.582Z,19.50
2019-04-01T14:25:25.497Z,19.41
2019-04-01T14:27:58.308Z,19.16
2019-04-01T14:30:36.257Z,19.16
2019-04-01T14:33:13.093Z,18.87
2019-04-01T14:35:45.308Z,18.84
2019-04-01T14:38:16.560Z,18.87
2019-04-01T14:40:49.284Z,18.80
2019-04-01T14:43:20.530Z,18.64
2019-04-01T14:45:54.725Z,18.61
2019-04-01T14:48:25.911Z,18.56
2019-04-01T14:51:00.627Z,18.47
2019-04-01T14:53:33.854Z,18.41
2019-04-01T14:56:06.007Z,18.36
2019-04-01T14:58:39.461Z,18.29
2019-04-01T15:01:16.696Z,18.26
2019-04-01T15:03:48.126Z,18.17
2019-04-01T15:06:19.546Z,18.08
2019-04-01T15:08:51.537Z,18.05
2019-04-01T15:11:27.559Z,17.88
2019-04-01T15:14:00.627Z,17.76
2019-04-01T15:16:32.880Z,17.72
2019-04-01T15:19:06.165Z,17.62
2019-04-01T15:21:37.381Z,17.41
2019-04-01T15:24:09.183Z,17.30
2019-04-01T15:26:42.046Z,17.15
2019-04-01T15:29:14.891Z,16.93
2019-04-01T15:31:47.367Z,16.85
2019-04-01T15:34:20.348Z,16.72
2019-04-01T15:36:52.238Z,16.53
2019-04-01T15:39:23.631Z,16.39
2019-04-01T15:41:57.472Z,16.19
2019-04-01T15:44:29.360Z,16.08
2019-04-01T15:47:04.431Z,15.90
2019-04-01T15:49:35.632Z,15.78
2019-04-01T15:52:07.375Z,15.68
2019-04-01T15:54:39.718Z,15.58
2019-04-01T15:57:15.092Z,15.47
2019-04-01T15:59:49.237Z,15.32
2019-04-01T16:02:24.545Z,15.16
2019-04-01T16:04:56.676Z,15.13
2019-04-01T16:07:28.982Z,14.99
2019-04-01T16:10:02.666Z,14.84
2019-04-01T16:12:34.036Z,14.74
2019-04-01T16:15:09.069Z,14.61
2019-04-01T16:17:40.145Z,14.50
2019-04-01T16:20:12.752Z,14.40
2019-04-01T16:22:44.609Z,14.28
2019-04-01T16:25:15.718Z,14.18
2019-04-01T16:27:46.913Z,14.09
2019-04-01T16:30:18.035Z,14.02
2019-04-01T16:32:51.392Z,13.94
2019-04-01T16:35:24.797Z,13.86
2019-04-01T16:37:59.361Z,13.74
2019-04-01T16:40:30.367Z,13.63
2019-04-01T16:43:02.110Z,13.55
2019-04-01T16:45:35.552Z,13.45
2019-04-01T16:48:08.483Z,13.41
2019-04-01T16:50:46.057Z,13.36
2019-04-01T16:53:17.454Z,13.28
2019-04-01T16:55:48.772Z,13.16
2019-04-01T16:58:21.919Z,13.07
2019-04-01T17:00:54.806Z,13.03
2019-04-01T17:03:26.402Z,12.91
2019-04-01T17:05:57.637Z,12.89
2019-04-01T17:08:29.771Z,12.78
2019-04-01T17:11:02.796Z,12.80
2019-04-01T17:13:34.171Z,12.62
2019-04-01T17:16:06.019Z,12.64
2019-04-01T17:18:37.647Z,12.60
2019-04-01T17:21:09.852Z,12.55
2019-04-01T17:23:42.056Z,12.47
2019-04-01T17:26:14.386Z,12.35
2019-04-01T17:28:45.727Z,12.26
2019-04-01T17:31:17.945Z,12.22
2019-04-01T17:33:49.421Z,12.15
2019-04-01T17:36:20.648Z,12.04
2019-04-01T17:38:53.735Z,12.01
2019-04-01T17:41:26.931Z,11.94
2019-04-01T17:43:58.555Z,11.86
2019-04-01T17:46:29.639Z,11.89
2019-04-01T17:49:01.314Z,11.90
2019-04-01T17:51:33.235Z,11.83
2019-04-01T17:54:04.557Z,11.82
2019-04-01T17:56:37.451Z,11.74
2019-04-01T17:59:12.595Z,11.72
2019-04-01T18:01:42.272Z,11.68
2019-04-01T18:04:13.894Z,11.64
2019-04-01T18:06:46.536Z,11.65
2019-04-01T18:09:18.899Z,11.62
2019-04-01T18:11:52.137Z,11.52
2019-04-01T18:14:23.541Z,11.56
2019-04-01T18:16:56.120Z,11.52
2019-04-01T18:19:27.552Z,11.47
2019-04-01T18:22:00.168Z,11.47
2019-04-01T18:24:31.531Z,11.44
2019-04-01T18:27:02.947Z,11.39
2019-04-01T18:29:35.071Z,11.36
2019-04-01T18:32:06.678Z,11.24
2019-04-01T18:34:39.783Z,11.17
2019-04-01T18:37:12.041Z,11.08
2019-04-01T18:39:48.349Z,11.06
2019-04-01T18:42:17.198Z,10.98
2019-04-01T18:44:48.804Z,10.93
2019-04-01T18:47:20.989Z,10.86
2019-04-01T18:49:52.169Z,10.74
2019-04-01T18:52:28.942Z,10.69
2019-04-01T18:55:02.073Z,10.59
2019-04-01T18:57:33.500Z,10.52
2019-04-01T19:00:09.960Z,10.43
2019-04-01T19:02:42.066Z,10.33
2019-04-01T19:05:13.468Z,10.33
2019-04-01T19:07:44.868Z,10.22
2019-04-01T19:10:16.236Z,10.11
2019-04-01T19:12:49.188Z,10.05
2019-04-01T19:15:22.715Z,10.05
2019-04-01T19:17:55.244Z,10.03
2019-04-01T19:20:30.344Z,10.01
2019-04-01T19:23:02.583Z,9.97
2019-04-01T19:25:37.154Z,9.94
2019-04-01T19:28:10.276Z,9.88
2019-04-01T19:30:43.167Z,9.89
2019-04-01T19:33:14.840Z,9.87
2019-04-01T19:35:49.987Z,9.87
2019-04-01T19:38:21.630Z,9.83
2019-04-01T19:40:53.668Z,9.70
2019-04-01T19:43:27.884Z,9.67
2019-04-01T19:45:59.605Z,9.63
2019-04-01T19:48:32.629Z,9.59
2019-04-01T19:51:04.457Z,9.55
2019-04-01T19:53:36.632Z,9.56
2019-04-01T19:56:08.742Z,9.53
2019-04-01T19:58:41.237Z,9.48
2019-04-01T20:01:12.393Z,9.40
2019-04-01T20:03:43.996Z,9.36
2019-04-01T20:06:15.175Z,9.34
2019-04-01T20:08:49.533Z,9.29
2019-04-01T20:11:19.317Z,9.31
2019-04-01T20:13:51.246Z,9.23
2019-04-01T20:16:22.507Z,9.15
2019-04-01T20:18:53.844Z,9.11
2019-04-01T20:21:25.157Z,9.04
2019-04-01T20:23:59.536Z,9.05
2019-04-01T20:26:31.779Z,9.06
2019-04-01T20:29:02.935Z,9.02
2019-04-01T20:31:34.353Z,9.01
2019-04-01T20:34:05.388Z,8.97
2019-04-01T20:36:36.375Z,8.98
2019-04-01T20:39:08.347Z,8.90
2019-04-01T20:41:40.514Z,8.82
2019-04-01T20:44:12.412Z,8.79
2019-04-01T20:46:45.618Z,8.76
2019-04-01T20:49:17.217Z,8.70
2019-04-01T20:51:48.362Z,8.70
2019-04-01T20:54:19.528Z,8.65
2019-04-01T20:56:50.784Z,8.58
2019-04-01T20:59:22.188Z,8.59
2019-04-01T21:01:53.545Z,8.55
2019-04-01T21:04:24.694Z,8.50
2019-04-01T21:06:55.980Z,8.41
2019-04-01T21:09:27.113Z,8.42
2019-04-01T21:11:58.339Z,8.44
2019-04-01T21:14:29.768Z,8.38
2019-04-01T21:17:02.190Z,8.30
2019-04-01T21:19:33.533Z,8.20
2019-04-01T21:22:04.869Z,8.12
2019-04-01T21:24:36.005Z,8.12
2019-04-01T21:27:08.100Z,8.05
2019-04-01T21:29:40.074Z,8.04
2019-04-01T21:32:11.407Z,8.02
2019-04-01T21:34:42.823Z,7.95
2019-04-01T21:37:13.999Z,7.91
2019-04-01T21:39:45.135Z,7.85
2019-04-01T21:42:17.222Z,7.84
2019-04-01T21:44:48.342Z,7.82
2019-04-01T21:47:19.996Z,7.77
2019-04-01T21:49:51.295Z,7.72
2019-04-01T21:52:22.601Z,7.67
2019-04-01T21:54:54.233Z,7.65
2019-04-01T21:57:25.896Z,7.54
2019-04-01T21:59:57.043Z,7.49
2019-04-01T22:02:35.710Z,7.45
2019-04-01T22:05:03.359Z,7.36
2019-04-01T22:07:38.268Z,7.31
2019-04-01T22:10:10.119Z,7.25
2019-04-01T22:12:43.785Z,7.21
2019-04-01T22:15:18.673Z,7.18
2019-04-01T22:17:49.907Z,7.12
2019-04-01T22:20:21.173Z,7.09
2019-04-01T22:22:52.398Z,7.06
2019-04-01T22:25:23.507Z,7.03
2019-04-01T22:27:54.789Z,6.99
2019-04-01T22:30:25.828Z,6.95
2019-04-01T22:32:56.988Z,6.86
2019-04-01T22:35:38.149Z,6.85
2019-04-01T22:38:03.383Z,6.81
2019-04-01T22:40:33.999Z,6.72
2019-04-01T22:43:06.240Z,6.65
2019-04-01T22:45:37.562Z,6.64
2019-04-01T22:48:09.066Z,6.63
2019-04-01T22:50:40.419Z,6.59
2019-04-01T22:53:11.717Z,6.56
2019-04-01T22:55:42.902Z,6.43
2019-04-01T22:58:14.149Z,6.38
2019-04-01T23:00:47.195Z,6.32
2019-04-01T23:03:18.826Z,6.31
2019-04-01T23:05:49.981Z,6.24
2019-04-01T23:08:21.301Z,6.26
2019-04-01T23:10:52.379Z,6.27
2019-04-01T23:13:25.641Z,6.03
2019-04-01T23:15:56.790Z,6.23
2019-04-01T23:18:27.867Z,6.22
2019-04-01T23:20:59.086Z,6.21
2019-04-01T23:23:30.320Z,6.18
2019-04-01T23:26:01.969Z,6.18
2019-04-01T23:28:33.309Z,6.28
2019-04-01T23:31:04.735Z,6.08
2019-04-01T23:33:35.934Z,6.35
2019-04-01T23:36:06.938Z,6.39
2019-04-01T23:38:37.935Z,6.38
2019-04-01T23:41:09.102Z,6.33
2019-04-01T23:43:41.158Z,6.33
2019-04-01T23:46:12.280Z,6.36
2019-04-01T23:48:43.529Z,6.34
2019-04-01T23:51:14.765Z,6.32
2019-04-01T23:53:46.098Z,6.28
2019-04-01T23:56:20.105Z,6.24
2019-04-01T23:58:51.195Z,6.19
